Cottageville, West Virginia
Current Conditions -  °F | °C
As of 9:55 AM on Tuesday 21 Oct 2014 (Local Time) from K3I2 Reporting Station
Haze Haze  
Wind Chill: 54°   Ceiling: 900
Heat Index: 54°   Visibility: 5mi
Dew Point: 52°   Wind: 5mph
Humidity: 94%   Direction: 300°WNW
Pressure: 29.95"   Gusts: NA
Location:  38.87°N, 81.82°W
Report Text: K3I2 211355Z AUTO 30004KT 5SM BR BKN009 OVC013 12/11 A2995 RMK AO2
Loading
Personal Weather Stations






























Interactive Weather Map
Tropical Storm Tracking
New forecast layout! Learn more

10-Day Weather Forecast

Advertisements
Track Severe Weather on mobile